createdAt,value
2019-01-05T00:00:31.659Z,26.93
2019-01-05T00:03:40.866Z,40.00
2019-01-05T00:06:49.681Z,37.83
2019-01-05T00:09:58.940Z,34.03
2019-01-05T00:13:26.620Z,35.47
2019-01-05T00:16:54.476Z,29.13
2019-01-05T00:20:25.460Z,42.57
2019-01-05T00:23:54.856Z,27.57
2019-01-05T00:27:24.304Z,33.83
2019-01-05T00:30:32.854Z,47.03
2019-01-05T00:34:02.313Z,29.50
2019-01-05T00:37:30.882Z,32.20
2019-01-05T00:40:59.027Z,30.13
2019-01-05T00:44:28.149Z,31.70
2019-01-05T00:47:37.445Z,35.33
2019-01-05T00:51:06.884Z,36.87
2019-01-05T00:57:45.394Z,33.67
2019-01-05T01:00:54.388Z,33.40
2019-01-05T01:04:03.249Z,31.80
2019-01-05T01:07:12.359Z,39.20
2019-01-05T01:10:40.355Z,31.30
2019-01-05T01:13:49.049Z,34.97
2019-01-05T01:16:57.691Z,36.33
2019-01-05T01:20:06.637Z,32.40
2019-01-05T01:23:36.285Z,35.63
2019-01-05T01:27:05.708Z,37.90
2019-01-05T01:34:07.006Z,36.73
2019-01-05T01:40:52.628Z,35.07
2019-01-05T01:44:02.526Z,39.80
2019-01-05T01:47:31.898Z,37.00
2019-01-05T01:51:01.040Z,38.27
2019-01-05T01:54:29.133Z,36.80
2019-01-05T01:57:54.063Z,35.20
2019-01-05T02:01:03.164Z,34.90
2019-01-05T02:04:30.907Z,39.00
2019-01-05T02:08:00.349Z,43.80
2019-01-05T02:11:29.693Z,36.83
2019-01-05T02:14:58.813Z,39.10
2019-01-05T02:18:30.879Z,36.43
2019-01-05T02:22:04.797Z,39.50
2019-01-05T02:29:42.594Z,35.73
2019-01-05T02:33:25.124Z,35.33
2019-01-05T02:37:11.916Z,33.77
2019-01-05T02:40:58.700Z,35.40
2019-01-05T02:44:45.097Z,35.93
2019-01-05T02:48:31.924Z,34.73
2019-01-05T02:52:12.858Z,34.80
2019-01-05T02:55:59.666Z,33.83
2019-01-05T02:59:46.468Z,33.07
2019-01-05T03:03:36.364Z,35.63
2019-01-05T03:07:23.447Z,34.70
2019-01-05T03:11:10.239Z,34.33
2019-01-05T03:14:57.037Z,32.43
2019-01-05T03:18:44.062Z,34.70
2019-01-05T03:22:15.672Z,37.80
2019-01-05T03:26:02.468Z,32.63
2019-01-05T03:29:49.271Z,33.40
2019-01-05T03:33:29.645Z,32.40
2019-01-05T03:37:16.429Z,31.70
2019-01-05T03:41:03.461Z,31.23
2019-01-05T03:44:45.976Z,33.43
2019-01-05T03:48:31.393Z,32.33
2019-01-05T03:52:18.448Z,32.37
2019-01-05T03:59:44.117Z,29.07
2019-01-05T04:03:33.737Z,31.43
2019-01-05T04:07:20.538Z,29.37
2019-01-05T04:11:07.321Z,31.03
2019-01-05T04:14:54.125Z,31.70
2019-01-05T04:18:30.097Z,31.83
2019-01-05T04:22:16.908Z,30.33
2019-01-05T04:26:03.703Z,30.43
2019-01-05T04:29:50.505Z,32.90
2019-01-05T04:33:37.318Z,34.83
2019-01-05T04:37:08.831Z,33.77
2019-01-05T04:40:38.349Z,36.90
2019-01-05T04:44:21.711Z,35.30
2019-01-05T04:48:10.186Z,35.57
2019-01-05T04:51:56.963Z,35.50
2019-01-05T04:55:43.991Z,37.00
2019-01-05T04:59:31.017Z,35.00
2019-01-05T05:03:20.850Z,33.37
2019-01-05T05:07:03.229Z,34.57
2019-01-05T05:10:50.020Z,35.20
2019-01-05T05:14:26.790Z,36.53
2019-01-05T05:18:13.814Z,32.87
2019-01-05T05:21:55.353Z,35.57
2019-01-05T05:25:42.408Z,30.30
2019-01-05T05:29:29.896Z,30.43
2019-01-05T05:33:07.834Z,31.47
2019-01-05T05:36:54.940Z,31.50
2019-01-05T05:40:41.713Z,33.13
2019-01-05T05:44:23.552Z,37.07
2019-01-05T05:48:10.343Z,36.80
2019-01-05T05:51:57.162Z,36.77
2019-01-05T05:55:45.541Z,39.20
2019-01-05T05:59:32.578Z,37.63
2019-01-05T06:03:19.375Z,40.77
2019-01-05T06:07:06.180Z,38.60
2019-01-05T06:10:52.983Z,38.83
2019-01-05T06:14:39.785Z,38.93
2019-01-05T06:18:18.341Z,41.87
2019-01-05T06:22:05.156Z,41.23
2019-01-05T06:25:39.507Z,41.40
2019-01-05T06:29:29.357Z,41.77
2019-01-05T06:33:17.087Z,40.87
2019-01-05T06:36:52.376Z,43.60
2019-01-05T06:40:33.461Z,44.60
2019-01-05T06:44:20.279Z,42.60
2019-01-05T06:48:07.312Z,48.57
2019-01-05T06:55:46.927Z,43.03
2019-01-05T06:59:33.759Z,42.67
2019-01-05T07:03:08.185Z,41.57
2019-01-05T07:06:54.983Z,43.17
2019-01-05T07:10:41.792Z,40.53
2019-01-05T07:14:30.736Z,40.97
2019-01-05T07:18:17.791Z,42.30
2019-01-05T07:22:07.401Z,38.57
2019-01-05T07:25:54.203Z,39.83
2019-01-05T07:29:41.246Z,39.00
2019-01-05T07:33:28.086Z,36.47
2019-01-05T07:37:14.990Z,34.37
2019-01-05T07:40:54.024Z,34.03
2019-01-05T07:44:38.980Z,36.47
2019-01-05T07:48:23.869Z,34.13
2019-01-05T07:52:10.665Z,33.10
2019-01-05T07:55:57.479Z,32.10
2019-01-05T07:59:44.591Z,29.37
2019-01-05T08:03:19.758Z,29.13
2019-01-05T08:07:06.551Z,27.00
2019-01-05T08:10:53.756Z,28.00
2019-01-05T08:14:29.363Z,26.20
2019-01-05T08:18:16.152Z,27.03
2019-01-05T08:22:02.950Z,26.13
2019-01-05T08:25:48.207Z,22.93
2019-01-05T08:29:33.326Z,24.50
2019-01-05T08:32:53.535Z,22.37
2019-01-05T08:40:46.592Z,22.07
2019-01-05T08:44:33.407Z,22.27
2019-01-05T08:48:20.202Z,19.87
2019-01-05T08:52:07.652Z,18.20
2019-01-05T08:55:48.313Z,18.53
2019-01-05T08:59:35.500Z,20.00
2019-01-05T09:03:22.495Z,19.47
2019-01-05T09:07:09.516Z,19.23
2019-01-05T09:10:56.547Z,19.50
2019-01-05T09:14:43.381Z,19.27
2019-01-05T09:18:30.235Z,19.93
2019-01-05T09:22:17.027Z,20.13
2019-01-05T09:26:04.218Z,21.90
2019-01-05T09:29:51.786Z,19.17
2019-01-05T09:33:38.556Z,18.90
2019-01-05T09:37:25.359Z,21.23
2019-01-05T09:41:12.161Z,18.93
2019-01-05T09:44:59.108Z,18.67
2019-01-05T09:48:45.888Z,20.87
2019-01-05T09:52:32.707Z,21.10
2019-01-05T09:56:22.270Z,18.33
2019-01-05T10:03:58.974Z,17.03
2019-01-05T10:07:45.961Z,18.40
2019-01-05T10:11:33.015Z,17.97
2019-01-05T10:15:19.846Z,17.07
2019-01-05T10:19:04.301Z,17.17
2019-01-05T10:22:52.462Z,17.90
2019-01-05T10:29:55.974Z,16.23
2019-01-05T10:33:16.166Z,15.03
2019-01-05T10:37:05.989Z,14.07
2019-01-05T10:40:52.912Z,14.30
2019-01-05T10:44:38.781Z,13.07
2019-01-05T10:48:21.488Z,13.37
2019-01-05T10:52:08.284Z,13.37
2019-01-05T10:55:57.878Z,12.57
2019-01-05T10:59:37.314Z,11.27
2019-01-05T11:03:13.929Z,12.10
2019-01-05T11:07:00.708Z,11.90
2019-01-05T11:18:23.448Z,10.00
2019-01-05T11:22:03.808Z,10.07
2019-01-05T11:25:50.604Z,9.90
2019-01-05T11:32:21.166Z,10.00
2019-01-05T11:36:10.808Z,10.50
2019-01-05T11:39:58.328Z,10.30
2019-01-05T11:43:46.096Z,9.77
2019-01-05T11:47:27.922Z,9.93
2019-01-05T11:51:14.706Z,9.33
2019-01-05T11:54:49.379Z,9.73
2019-01-05T11:58:42.029Z,10.33
2019-01-05T12:02:30.517Z,9.60
2019-01-05T12:06:07.747Z,8.80
2019-01-05T12:09:54.815Z,9.47
2019-01-05T12:13:41.835Z,9.77
2019-01-05T12:17:28.237Z,8.50
2019-01-05T12:21:19.584Z,8.47
2019-01-05T12:29:08.438Z,8.40
2019-01-05T12:32:55.677Z,8.97
2019-01-05T12:36:42.824Z,9.53
2019-01-05T12:44:06.409Z,9.33
2019-01-05T12:47:53.479Z,9.57
2019-01-05T12:51:37.656Z,9.63
2019-01-05T12:55:18.027Z,9.17
2019-01-05T12:59:03.172Z,9.00
2019-01-05T13:02:48.978Z,9.47
2019-01-05T13:06:35.784Z,9.40
2019-01-05T13:10:25.677Z,9.43
2019-01-05T13:14:12.438Z,9.30
2019-01-05T13:17:59.221Z,9.03
2019-01-05T13:21:46.434Z,9.67
2019-01-05T13:25:33.225Z,8.70
2019-01-05T13:29:11.995Z,8.67
2019-01-05T13:32:58.791Z,9.23
2019-01-05T13:36:43.264Z,8.53
2019-01-05T13:40:19.657Z,8.87
2019-01-05T13:44:06.445Z,8.53
2019-01-05T13:47:47.830Z,8.40
2019-01-05T13:51:34.621Z,8.00
2019-01-05T13:54:43.558Z,7.83
2019-01-05T13:57:52.462Z,7.93
2019-01-05T14:01:00.960Z,10.07
2019-01-05T14:04:09.946Z,9.70
2019-01-05T14:07:18.918Z,8.67
2019-01-05T14:10:27.961Z,9.00
2019-01-05T14:13:55.652Z,9.40
2019-01-05T14:17:04.121Z,7.93
2019-01-05T14:20:31.857Z,8.40
2019-01-05T14:23:53.021Z,8.80
2019-01-05T14:27:14.867Z,8.40
2019-01-05T14:30:35.871Z,8.37
2019-01-05T14:33:44.344Z,9.60
2019-01-05T14:37:12.475Z,9.40
2019-01-05T14:40:20.914Z,9.00
2019-01-05T14:43:24.217Z,8.90
2019-01-05T14:46:33.375Z,8.27
2019-01-05T14:50:01.282Z,8.33
2019-01-05T14:53:09.728Z,8.40
2019-01-05T14:56:18.683Z,8.50
2019-01-05T14:59:27.663Z,8.63
2019-01-05T15:02:36.418Z,9.00
2019-01-05T15:05:45.352Z,8.50
2019-01-05T15:09:13.040Z,8.80
2019-01-05T15:12:40.923Z,8.37
2019-01-05T15:15:44.704Z,8.73
2019-01-05T15:18:53.402Z,9.00
2019-01-05T15:22:02.603Z,8.80
2019-01-05T15:25:11.045Z,9.80
2019-01-05T15:28:19.978Z,9.10
2019-01-05T15:31:28.728Z,8.30
2019-01-05T15:34:37.669Z,8.73
2019-01-05T15:37:46.367Z,9.20
2019-01-05T15:40:55.344Z,9.00
2019-01-05T15:44:04.046Z,8.30
2019-01-05T15:47:12.828Z,9.00
2019-01-05T15:50:40.760Z,8.97
2019-01-05T15:53:49.902Z,9.30
2019-01-05T15:57:17.893Z,8.90
2019-01-05T16:00:28.168Z,8.83
2019-01-05T16:03:46.196Z,8.70
2019-01-05T16:09:54.124Z,8.80
2019-01-05T16:16:16.917Z,9.17
2019-01-05T16:19:25.707Z,9.10
2019-01-05T16:22:34.166Z,9.00
2019-01-05T16:25:54.928Z,8.87
2019-01-05T16:29:03.623Z,9.40
2019-01-05T16:32:12.323Z,9.57
2019-01-05T16:35:40.014Z,9.90
2019-01-05T16:38:48.691Z,9.23
2019-01-05T16:41:57.126Z,9.50
2019-01-05T16:45:05.827Z,9.57
2019-01-05T16:48:33.705Z,9.93
2019-01-05T16:51:42.416Z,9.33
2019-01-05T16:54:51.183Z,9.27
2019-01-05T16:58:00.047Z,9.83
2019-01-05T17:01:08.858Z,9.53
2019-01-05T17:04:17.752Z,9.70
2019-01-05T17:07:26.433Z,9.80
2019-01-05T17:10:35.225Z,8.80
2019-01-05T17:13:43.722Z,9.40
2019-01-05T17:17:11.494Z,9.43
2019-01-05T17:20:39.376Z,9.00
2019-01-05T17:23:48.384Z,9.90
2019-01-05T17:27:16.303Z,10.27
2019-01-05T17:30:25.325Z,10.33
2019-01-05T17:33:34.118Z,10.70
2019-01-05T17:36:43.035Z,10.73
2019-01-05T17:39:42.401Z,12.27
2019-01-05T17:42:51.245Z,11.50
2019-01-05T17:46:18.914Z,10.10
2019-01-05T17:49:27.624Z,9.90
2019-01-05T17:52:36.729Z,10.57
2019-01-05T17:56:04.415Z,11.00
2019-01-05T17:59:12.851Z,9.60
2019-01-05T18:02:40.512Z,9.87
2019-01-05T18:06:08.184Z,10.03
2019-01-05T18:09:16.646Z,9.80
2019-01-05T18:12:25.675Z,10.23
2019-01-05T18:15:34.605Z,10.20
2019-01-05T18:18:43.779Z,10.40
2019-01-05T18:21:52.231Z,10.27
2019-01-05T18:25:00.904Z,10.57
2019-01-05T18:28:09.564Z,10.53
2019-01-05T18:31:18.281Z,10.57
2019-01-05T18:34:27.257Z,10.70
2019-01-05T18:37:54.958Z,11.03
2019-01-05T18:41:03.951Z,11.17
2019-01-05T18:44:12.759Z,11.07
2019-01-05T18:47:21.719Z,10.90
2019-01-05T18:50:30.429Z,16.60
2019-01-05T18:53:39.173Z,13.13
2019-01-05T18:57:07.331Z,13.17
2019-01-05T19:00:16.381Z,12.03
2019-01-05T19:03:44.341Z,10.93
2019-01-05T19:06:53.734Z,11.23
2019-01-05T19:10:02.636Z,11.90
2019-01-05T19:13:11.328Z,12.00
2019-01-05T19:16:21.086Z,12.50
2019-01-05T19:19:30.095Z,12.17
2019-01-05T19:22:49.607Z,11.97
2019-01-05T19:25:58.135Z,15.17
2019-01-05T19:29:26.709Z,10.63
2019-01-05T19:32:37.521Z,11.40
2019-01-05T19:36:05.686Z,11.00
2019-01-05T19:39:14.911Z,10.23
2019-01-05T19:42:23.794Z,10.70
2019-01-05T19:45:32.673Z,10.60
2019-01-05T19:48:41.480Z,10.67
2019-01-05T19:51:42.146Z,10.60
2019-01-05T19:55:10.364Z,10.63
2019-01-05T19:58:19.491Z,10.93
2019-01-05T20:01:28.115Z,10.63
2019-01-05T20:04:37.704Z,10.20
2019-01-05T20:07:47.045Z,10.87
2019-01-05T20:10:56.109Z,10.60
2019-01-05T20:14:06.454Z,10.43
2019-01-05T20:17:18.064Z,10.57
2019-01-05T20:20:48.159Z,10.80
2019-01-05T20:24:17.889Z,10.60
2019-01-05T20:27:27.267Z,10.70
2019-01-05T20:31:15.227Z,10.60
2019-01-05T20:38:26.490Z,10.50
2019-01-05T20:41:35.258Z,11.03
2019-01-05T20:47:41.000Z,10.50
2019-01-05T20:51:09.016Z,11.00
2019-01-05T20:54:17.965Z,11.03
2019-01-05T20:57:46.017Z,10.77
2019-01-05T21:00:55.098Z,10.73
2019-01-05T21:04:03.694Z,11.00
2019-01-05T21:07:32.171Z,12.50
2019-01-05T21:10:28.995Z,10.33
2019-01-05T21:17:33.869Z,11.03
2019-01-05T21:20:42.659Z,11.57
2019-01-05T21:23:51.137Z,10.10
2019-01-05T21:27:18.877Z,10.53
2019-01-05T21:30:28.292Z,10.30
2019-01-05T21:33:37.043Z,10.50
2019-01-05T21:36:46.251Z,10.20
2019-01-05T21:39:54.784Z,10.50
2019-01-05T21:43:03.485Z,10.50
2019-01-05T21:46:12.190Z,10.50
2019-01-05T21:49:20.924Z,10.90
2019-01-05T21:52:30.255Z,10.40
2019-01-05T21:55:39.461Z,11.27
2019-01-05T21:58:48.190Z,10.90
2019-01-05T22:01:59.854Z,11.43
2019-01-05T22:05:12.777Z,10.00
2019-01-05T22:08:22.795Z,10.93
2019-01-05T22:11:31.640Z,10.83
2019-01-05T22:14:59.319Z,12.00
2019-01-05T22:18:07.852Z,11.00
2019-01-05T22:21:16.934Z,11.00
2019-01-05T22:24:44.866Z,11.67
2019-01-05T22:27:54.622Z,11.47
2019-01-05T22:31:22.928Z,10.60
2019-01-05T22:34:32.015Z,11.13
2019-01-05T22:37:41.056Z,11.00
2019-01-05T22:40:45.604Z,11.10
2019-01-05T22:44:15.439Z,10.60
2019-01-05T22:47:24.965Z,11.00
2019-01-05T22:50:33.809Z,11.07
2019-01-05T22:53:42.407Z,10.87
2019-01-05T22:56:51.410Z,10.80
2019-01-05T23:00:00.467Z,10.53
2019-01-05T23:03:23.326Z,10.87
2019-01-05T23:06:32.497Z,10.73
2019-01-05T23:10:00.426Z,10.33
2019-01-05T23:13:07.194Z,10.93
2019-01-05T23:16:16.032Z,11.30
2019-01-05T23:19:24.757Z,11.13
2019-01-05T23:22:52.422Z,11.43
2019-01-05T23:26:01.166Z,10.70
2019-01-05T23:29:14.842Z,11.13
2019-01-05T23:32:20.307Z,11.60
2019-01-05T23:35:27.804Z,11.00
2019-01-05T23:38:35.198Z,11.70
2019-01-05T23:41:45.284Z,11.30
2019-01-05T23:44:54.951Z,11.80
2019-01-05T23:48:04.857Z,11.80
2019-01-05T23:51:13.632Z,11.53
2019-01-05T23:54:18.399Z,11.50
2019-01-05T23:57:46.336Z,11.03
